Main page
METAR-TAF:

METAR-TAF

Airports :

Dr. Babasaheb Ambedkar International Airport

Nagpur, India

latitude: 21-06N, longitude: 079-03E, elevation: 308 m

Current weather observation

The report was made 43 minutes ago, at 18:00 UTC
Wind 4 kt from the Northeast
Temperature 29°C
Humidity 25%
Pressure 1012 hPa
Visibility: 3000 m
haze

METAR: VANP 241800Z 05004KT 3000 HZ NSC 29/07 Q1012 NOSIG

Time: 00:13 (18:43 UTC)

Forecast

The report was made 1 hour and 43 minutes ago, at 17:00 UTC
Forecast valid from 24 at 18 UTC to 25 at 24 UTC
Wind 3 kt from the Northeast
Visibility: 3000 m
haze
Becoming
from 25 at 04 UTC to 25 at 06 UTC
Wind 5 kt from the Southeast
Visibility: 5000 m
haze
Becoming
from 25 at 08 UTC to 25 at 10 UTC
Wind 2 kt from variable directions
Few clouds at a height of 2500 ft
Becoming
from 25 at 13 UTC to 25 at 14 UTC
Visibility: 3000 m
haze

TAF: VANP 241700Z 2418/2524 04003KT 3000 HZ NSC BECMG 2504/2506 14005KT 5000 HZ BECMG 2508/2510 VRB02KT FEW025 BECMG 2513/2514 3000 HZ NSC

Weather observations and forecasts of more than 4000 airports (METAR and TAF reports).

The available stations are represented by yellow and red dots on the map.

Hover mouse over dot to see the name of the station.

Then click to see weather observations and forecasts.

To change the map : click on the green buttons with a black cross to zoom in, on the green button with a dash to zoom out, or on the green arrows for adjacent maps.


METAR-TAF: